sensor_id;sensor_type;location;lat;lon;timestamp;pressure;altitude;pressure_sealevel;temperature;humidity
60099;BME280;62818;49.394;8.686;2023-11-21T00:00:39;99814.66;;;9.33;100.00
60099;BME280;62818;49.394;8.686;2023-11-21T00:01:39;99820.81;;;9.26;100.00
60099;BME280;62818;49.394;8.686;2023-11-21T00:02:41;99820.28;;;9.16;100.00
60099;BME280;62818;49.394;8.686;2023-11-21T00:03:42;99808.34;;;9.20;100.00
60099;BME280;62818;49.394;8.686;2023-11-21T00:04:42;99812.41;;;9.08;100.00
60099;BME280;62818;49.394;8.686;2023-11-21T00:05:43;99808.44;;;9.12;100.00
60099;BME280;62818;49.394;8.686;2023-11-21T00:06:43;99810.06;;;9.13;100.00
60099;BME280;62818;49.394;8.686;2023-11-21T00:07:47;99804.88;;;9.19;100.00
60099;BME280;62818;49.394;8.686;2023-11-21T00:08:47;99809.41;;;9.11;100.00
60099;BME280;62818;49.394;8.686;2023-11-21T00:09:48;99810.78;;;9.21;100.00
60099;BME280;62818;49.394;8.686;2023-11-21T00:10:48;99810.44;;;9.10;100.00
60099;BME280;62818;49.394;8.686;2023-11-21T00:11:49;99815.81;;;9.16;100.00
60099;BME280;62818;49.394;8.686;2023-11-21T00:12:49;99811.81;;;9.35;100.00
60099;BME280;62818;49.394;8.686;2023-11-21T00:13:50;99807.94;;;9.08;100.00
60099;BME280;62818;49.394;8.686;2023-11-21T00:14:51;99806.47;;;9.06;100.00
60099;BME280;62818;49.394;8.686;2023-11-21T00:15:51;99805.72;;;8.97;100.00
60099;BME280;62818;49.394;8.686;2023-11-21T00:16:52;99809.72;;;9.16;100.00
60099;BME280;62818;49.394;8.686;2023-11-21T00:17:52;99816.16;;;9.13;100.00
60099;BME280;62818;49.394;8.686;2023-11-21T00:18:52;99812.88;;;9.11;100.00
60099;BME280;62818;49.394;8.686;2023-11-21T00:19:53;99813.13;;;9.02;100.00
60099;BME280;62818;49.394;8.686;2023-11-21T00:20:53;99815.72;;;9.10;100.00
60099;BME280;62818;49.394;8.686;2023-11-21T00:21:54;99810.88;;;9.13;100.00
60099;BME280;62818;49.394;8.686;2023-11-21T00:22:54;99815.03;;;9.08;100.00
60099;BME280;62818;49.394;8.686;2023-11-21T00:23:55;99809.50;;;9.03;100.00
60099;BME280;62818;49.394;8.686;2023-11-21T00:24:56;99811.41;;;8.94;100.00
60099;BME280;62818;49.394;8.686;2023-11-21T00:25:56;99816.06;;;9.07;100.00
60099;BME280;62818;49.394;8.686;2023-11-21T00:26:57;99810.34;;;9.18;100.00
60099;BME280;62818;49.394;8.686;2023-11-21T00:27:57;99809.25;;;9.27;100.00
60099;BME280;62818;49.394;8.686;2023-11-21T00:28:57;99814.25;;;9.22;100.00
60099;BME280;62818;49.394;8.686;2023-11-21T00:29:58;99817.94;;;9.21;100.00
60099;BME280;62818;49.394;8.686;2023-11-21T00:30:58;99819.81;;;9.12;100.00
60099;BME280;62818;49.394;8.686;2023-11-21T00:31:59;99812.63;;;9.21;100.00
60099;BME280;62818;49.394;8.686;2023-11-21T00:32:59;99811.97;;;9.19;100.00
60099;BME280;62818;49.394;8.686;2023-11-21T00:34:00;99806.81;;;9.40;100.00
60099;BME280;62818;49.394;8.686;2023-11-21T00:35:00;99814.84;;;9.32;100.00
60099;BME280;62818;49.394;8.686;2023-11-21T00:36:01;99812.91;;;9.26;100.00
60099;BME280;62818;49.394;8.686;2023-11-21T00:37:02;99806.97;;;9.24;100.00
60099;BME280;62818;49.394;8.686;2023-11-21T00:38:03;99814.47;;;9.20;100.00
60099;BME280;62818;49.394;8.686;2023-11-21T00:39:03;99810.00;;;9.50;100.00
60099;BME280;62818;49.394;8.686;2023-11-21T00:40:06;99808.25;;;9.28;100.00
60099;BME280;62818;49.394;8.686;2023-11-21T00:41:07;99807.34;;;9.21;100.00
60099;BME280;62818;49.394;8.686;2023-11-21T00:42:08;99807.06;;;9.16;100.00
60099;BME280;62818;49.394;8.686;2023-11-21T00:43:10;99810.06;;;9.13;100.00
60099;BME280;62818;49.394;8.686;2023-11-21T00:44:11;99807.44;;;9.27;100.00
60099;BME280;62818;49.394;8.686;2023-11-21T00:45:11;99801.97;;;9.43;100.00
60099;BME280;62818;49.394;8.686;2023-11-21T00:46:12;99809.81;;;9.37;100.00
60099;BME280;62818;49.394;8.686;2023-11-21T00:47:13;99799.31;;;9.29;100.00
60099;BME280;62818;49.394;8.686;2023-11-21T00:48:14;99803.69;;;9.22;100.00
60099;BME280;62818;49.394;8.686;2023-11-21T00:49:15;99798.25;;;9.38;100.00
60099;BME280;62818;49.394;8.686;2023-11-21T00:50:15;99806.53;;;9.20;100.00
60099;BME280;62818;49.394;8.686;2023-11-21T00:51:16;99805.44;;;9.29;100.00
60099;BME280;62818;49.394;8.686;2023-11-21T00:52:16;99807.53;;;9.34;100.00
60099;BME280;62818;49.394;8.686;2023-11-21T00:53:17;99801.53;;;9.40;100.00
60099;BME280;62818;49.394;8.686;2023-11-21T00:54:17;99802.41;;;9.18;100.00
60099;BME280;62818;49.394;8.686;2023-11-21T00:55:18;99804.13;;;9.25;100.00
60099;BME280;62818;49.394;8.686;2023-11-21T00:56:18;99801.13;;;9.28;100.00
60099;BME280;62818;49.394;8.686;2023-11-21T00:57:19;99798.41;;;9.22;100.00
60099;BME280;62818;49.394;8.686;2023-11-21T00:58:19;99795.75;;;9.22;100.00
60099;BME280;62818;49.394;8.686;2023-11-21T00:59:20;99794.03;;;9.29;100.00
60099;BME280;62818;49.394;8.686;2023-11-21T01:00:20;99796.19;;;9.25;100.00
60099;BME280;62818;49.394;8.686;2023-11-21T01:01:21;99801.13;;;9.14;100.00
60099;BME280;62818;49.394;8.686;2023-11-21T01:02:22;99799.69;;;9.26;100.00
60099;BME280;62818;49.394;8.686;2023-11-21T01:03:23;99802.22;;;9.19;100.00
60099;BME280;62818;49.394;8.686;2023-11-21T01:04:23;99796.88;;;9.27;100.00
60099;BME280;62818;49.394;8.686;2023-11-21T01:05:24;99797.31;;;9.31;100.00
60099;BME280;62818;49.394;8.686;2023-11-21T01:06:24;99808.44;;;9.41;100.00
60099;BME280;62818;49.394;8.686;2023-11-21T01:07:25;99799.69;;;9.26;100.00
60099;BME280;62818;49.394;8.686;2023-11-21T01:08:25;99805.34;;;9.23;100.00
60099;BME280;62818;49.394;8.686;2023-11-21T01:09:26;99802.06;;;9.21;100.00
60099;BME280;62818;49.394;8.686;2023-11-21T01:10:26;99804.22;;;9.17;100.00
60099;BME280;62818;49.394;8.686;2023-11-21T01:11:27;99805.53;;;9.36;100.00
60099;BME280;62818;49.394;8.686;2023-11-21T01:12:27;99809.06;;;9.28;100.00
60099;BME280;62818;49.394;8.686;2023-11-21T01:13:28;99806.09;;;9.31;100.00
60099;BME280;62818;49.394;8.686;2023-11-21T01:14:28;99807.16;;;9.37;100.00
60099;BME280;62818;49.394;8.686;2023-11-21T01:15:28;99810.44;;;9.39;100.00
60099;BME280;62818;49.394;8.686;2023-11-21T01:16:29;99812.84;;;9.34;100.00
60099;BME280;62818;49.394;8.686;2023-11-21T01:17:33;99813.19;;;9.31;100.00
60099;BME280;62818;49.394;8.686;2023-11-21T01:18:34;99811.09;;;9.41;100.00
60099;BME280;62818;49.394;8.686;2023-11-21T01:19:36;99805.00;;;9.40;100.00
60099;BME280;62818;49.394;8.686;2023-11-21T01:20:37;99810.25;;;9.26;100.00
60099;BME280;62818;49.394;8.686;2023-11-21T01:21:38;99814.63;;;9.19;100.00
60099;BME280;62818;49.394;8.686;2023-11-21T01:22:39;99813.47;;;9.50;100.00
60099;BME280;62818;49.394;8.686;2023-11-21T01:23:39;99807.53;;;9.34;100.00
60099;BME280;62818;49.394;8.686;2023-11-21T01:24:40;99818.47;;;9.31;100.00
60099;BME280;62818;49.394;8.686;2023-11-21T01:25:40;99812.25;;;9.24;100.00
60099;BME280;62818;49.394;8.686;2023-11-21T01:26:41;99807.91;;;9.31;100.00
60099;BME280;62818;49.394;8.686;2023-11-21T01:27:42;99815.03;;;9.45;100.00
60099;BME280;62818;49.394;8.686;2023-11-21T01:28:43;99810.91;;;9.42;100.00
60099;BME280;62818;49.394;8.686;2023-11-21T01:29:43;99813.09;;;9.39;100.00
60099;BME280;62818;49.394;8.686;2023-11-21T01:30:45;99816.38;;;9.41;100.00
60099;BME280;62818;49.394;8.686;2023-11-21T01:31:46;99807.81;;;9.39;100.00
60099;BME280;62818;49.394;8.686;2023-11-21T01:32:47;99808.34;;;9.34;100.00
60099;BME280;62818;49.394;8.686;2023-11-21T01:33:47;99814.75;;;9.40;100.00
60099;BME280;62818;49.394;8.686;2023-11-21T01:34:50;99802.44;;;9.47;100.00
60099;BME280;62818;49.394;8.686;2023-11-21T01:35:51;99800.25;;;9.36;100.00
60099;BME280;62818;49.394;8.686;2023-11-21T01:36:54;99806.81;;;9.40;100.00
60099;BME280;62818;49.394;8.686;2023-11-21T01:37:55;99810.47;;;9.68;100.00
60099;BME280;62818;49.394;8.686;2023-11-21T01:38:55;99806.72;;;9.62;100.00
60099;BME280;62818;49.394;8.686;2023-11-21T01:39:59;99808.25;;;9.86;100.00
60099;BME280;62818;49.394;8.686;2023-11-21T01:41:01;99804.97;;;9.84;100.00
60099;BME280;62818;49.394;8.686;2023-11-21T01:42:02;99808.00;;;9.66;100.00
60099;BME280;62818;49.394;8.686;2023-11-21T01:43:02;99807.97;;;9.52;100.00
60099;BME280;62818;49.394;8.686;2023-11-21T01:44:06;99809.38;;;9.62;100.00
60099;BME280;62818;49.394;8.686;2023-11-21T01:45:10;99806.25;;;9.59;100.00
60099;BME280;62818;49.394;8.686;2023-11-21T01:46:12;99807.53;;;9.48;100.00
60099;BME280;62818;49.394;8.686;2023-11-21T01:47:16;99805.72;;;9.49;100.00
60099;BME280;62818;49.394;8.686;2023-11-21T01:48:17;99807.72;;;9.47;100.00
60099;BME280;62818;49.394;8.686;2023-11-21T01:49:18;99815.81;;;9.45;100.00
60099;BME280;62818;49.394;8.686;2023-11-21T01:50:20;99805.63;;;9.57;100.00
60099;BME280;62818;49.394;8.686;2023-11-21T01:51:22;99809.84;;;9.51;100.00
60099;BME280;62818;49.394;8.686;2023-11-21T01:52:23;99807.72;;;9.47;100.00
60099;BME280;62818;49.394;8.686;2023-11-21T01:53:25;99803.06;;;9.49;100.00
60099;BME280;62818;49.394;8.686;2023-11-21T01:54:26;99804.16;;;9.40;100.00
60099;BME280;62818;49.394;8.686;2023-11-21T01:55:27;99798.94;;;9.61;100.00
60099;BME280;62818;49.394;8.686;2023-11-21T01:56:28;99796.69;;;9.43;100.00
60099;BME280;62818;49.394;8.686;2023-11-21T01:57:28;99803.06;;;9.49;100.00
60099;BME280;62818;49.394;8.686;2023-11-21T01:58:30;99803.91;;;9.49;100.00
60099;BME280;62818;49.394;8.686;2023-11-21T01:59:37;99801.16;;;9.57;100.00
60099;BME280;62818;49.394;8.686;2023-11-21T02:00:38;99798.69;;;9.41;100.00
60099;BME280;62818;49.394;8.686;2023-11-21T02:01:38;99805.72;;;9.49;100.00
60099;BME280;62818;49.394;8.686;2023-11-21T02:02:39;99802.63;;;9.60;100.00
60099;BME280;62818;49.394;8.686;2023-11-21T02:03:39;99801.41;;;9.48;100.00
60099;BME280;62818;49.394;8.686;2023-11-21T02:04:40;99805.91;;;9.62;100.00
60099;BME280;62818;49.394;8.686;2023-11-21T02:05:41;99795.50;;;9.46;100.00
60099;BME280;62818;49.394;8.686;2023-11-21T02:06:41;99806.25;;;9.59;100.00
60099;BME280;62818;49.394;8.686;2023-11-21T02:07:42;99807.00;;;9.82;100.00
60099;BME280;62818;49.394;8.686;2023-11-21T02:08:47;99802.97;;;9.57;100.00
60099;BME280;62818;49.394;8.686;2023-11-21T02:09:49;99794.75;;;9.52;100.00
60099;BME280;62818;49.394;8.686;2023-11-21T02:10:49;99803.25;;;9.47;100.00
60099;BME280;62818;49.394;8.686;2023-11-21T02:11:50;99807.63;;;9.40;100.00
60099;BME280;62818;49.394;8.686;2023-11-21T02:12:51;99792.75;;;9.54;100.00
60099;BME280;62818;49.394;8.686;2023-11-21T02:13:52;99793.09;;;9.36;100.00
60099;BME280;62818;49.394;8.686;2023-11-21T02:14:54;99797.94;;;9.33;100.00
60099;BME280;62818;49.394;8.686;2023-11-21T02:15:55;99797.84;;;9.41;100.00
60099;BME280;62818;49.394;8.686;2023-11-21T02:16:57;99797.59;;;9.36;100.00
60099;BME280;62818;49.394;8.686;2023-11-21T02:17:57;99804.25;;;9.32;100.00
60099;BME280;62818;49.394;8.686;2023-11-21T02:18:59;99793.69;;;9.32;100.00
60099;BME280;62818;49.394;8.686;2023-11-21T02:20:00;99800.25;;;9.36;100.00
60099;BME280;62818;49.394;8.686;2023-11-21T02:21:00;99800.16;;;9.44;100.00
60099;BME280;62818;49.394;8.686;2023-11-21T02:22:03;99796.31;;;9.46;100.00
60099;BME280;62818;49.394;8.686;2023-11-21T02:23:06;99801.88;;;9.37;100.00
60099;BME280;62818;49.394;8.686;2023-11-21T02:24:07;99799.59;;;9.34;100.00
60099;BME280;62818;49.394;8.686;2023-11-21T02:25:08;99797.41;;;9.37;100.00
60099;BME280;62818;49.394;8.686;2023-11-21T02:26:09;99799.88;;;9.39;100.00
60099;BME280;62818;49.394;8.686;2023-11-21T02:27:10;99794.97;;;9.36;100.00
60099;BME280;62818;49.394;8.686;2023-11-21T02:28:12;99802.06;;;9.50;100.00
60099;BME280;62818;49.394;8.686;2023-11-21T02:29:15;99801.88;;;9.37;100.00
60099;BME280;62818;49.394;8.686;2023-11-21T02:30:18;99795.75;;;9.36;100.00
60099;BME280;62818;49.394;8.686;2023-11-21T02:31:19;99800.69;;;9.54;100.00
60099;BME280;62818;49.394;8.686;2023-11-21T02:32:19;99802.69;;;9.52;100.00
60099;BME280;62818;49.394;8.686;2023-11-21T02:33:22;99796.78;;;9.64;100.00
60099;BME280;62818;49.394;8.686;2023-11-21T02:34:23;99802.06;;;9.64;100.00
60099;BME280;62818;49.394;8.686;2023-11-21T02:35:25;99806.25;;;9.44;100.00
60099;BME280;62818;49.394;8.686;2023-11-21T02:36:26;99801.06;;;9.51;100.00
60099;BME280;62818;49.394;8.686;2023-11-21T02:37:26;99800.44;;;9.49;100.00
60099;BME280;62818;49.394;8.686;2023-11-21T02:38:27;99799.34;;;9.58;100.00
60099;BME280;62818;49.394;8.686;2023-11-21T02:39:27;99787.03;;;9.36;100.00
60099;BME280;62818;49.394;8.686;2023-11-21T02:40:29;99794.94;;;9.65;100.00
60099;BME280;62818;49.394;8.686;2023-11-21T02:41:29;99795.22;;;9.55;100.00
60099;BME280;62818;49.394;8.686;2023-11-21T02:42:30;99797.69;;;9.57;100.00
60099;BME280;62818;49.394;8.686;2023-11-21T02:43:30;99798.88;;;9.69;100.00
60099;BME280;62818;49.394;8.686;2023-11-21T02:44:31;99796.91;;;9.92;100.00
60099;BME280;62818;49.394;8.686;2023-11-21T02:45:31;99791.28;;;9.66;100.00
60099;BME280;62818;49.394;8.686;2023-11-21T02:46:33;99794.41;;;9.55;100.00
60099;BME280;62818;49.394;8.686;2023-11-21T02:47:34;99788.75;;;9.43;100.00
60099;BME280;62818;49.394;8.686;2023-11-21T02:48:34;99796.03;;;9.70;100.00
60099;BME280;62818;49.394;8.686;2023-11-21T02:49:36;99785.66;;;9.69;100.00
60099;BME280;62818;49.394;8.686;2023-11-21T02:50:36;99795.22;;;9.55;100.00
60099;BME280;62818;49.394;8.686;2023-11-21T02:51:37;99786.66;;;9.53;100.00
60099;BME280;62818;49.394;8.686;2023-11-21T02:52:39;99798.44;;;9.51;100.00
60099;BME280;62818;49.394;8.686;2023-11-21T02:53:42;99792.41;;;9.57;100.00
60099;BME280;62818;49.394;8.686;2023-11-21T02:54:43;99788.28;;;9.69;100.00
60099;BME280;62818;49.394;8.686;2023-11-21T02:55:43;99794.75;;;9.52;100.00
60099;BME280;62818;49.394;8.686;2023-11-21T02:56:44;99790.78;;;9.56;100.00
60099;BME280;62818;49.394;8.686;2023-11-21T02:57:44;99793.59;;;9.69;100.00
60099;BME280;62818;49.394;8.686;2023-11-21T02:58:45;99792.66;;;9.77;100.00
60099;BME280;62818;49.394;8.686;2023-11-21T02:59:45;99786.81;;;9.81;100.00
60099;BME280;62818;49.394;8.686;2023-11-21T03:00:46;99787.81;;;9.80;100.00
60099;BME280;62818;49.394;8.686;2023-11-21T03:01:46;99789.38;;;9.60;100.00
60099;BME280;62818;49.394;8.686;2023-11-21T03:02:47;99784.72;;;9.62;100.00
60099;BME280;62818;49.394;8.686;2023-11-21T03:03:47;99788.47;;;9.53;100.00
60099;BME280;62818;49.394;8.686;2023-11-21T03:04:51;99788.00;;;9.35;100.00
60099;BME280;62818;49.394;8.686;2023-11-21T03:05:51;99785.25;;;9.43;100.00
60099;BME280;62818;49.394;8.686;2023-11-21T03:06:52;99789.22;;;9.47;100.00
60099;BME280;62818;49.394;8.686;2023-11-21T03:07:52;99788.84;;;9.35;100.00
60099;BME280;62818;49.394;8.686;2023-11-21T03:08:53;99790.94;;;9.69;100.00
60099;BME280;62818;49.394;8.686;2023-11-21T03:09:53;99789.47;;;9.52;100.00
60099;BME280;62818;49.394;8.686;2023-11-21T03:10:54;99792.94;;;9.52;100.00
60099;BME280;62818;49.394;8.686;2023-11-21T03:11:54;99787.91;;;9.72;100.00
60099;BME280;62818;49.394;8.686;2023-11-21T03:12:55;99784.66;;;9.55;100.00
60099;BME280;62818;49.394;8.686;2023-11-21T03:13:55;99789.56;;;9.44;100.00
60099;BME280;62818;49.394;8.686;2023-11-21T03:14:55;99794.22;;;9.42;100.00
60099;BME280;62818;49.394;8.686;2023-11-21T03:15:56;99794.97;;;9.36;100.00
60099;BME280;62818;49.394;8.686;2023-11-21T03:16:56;99784.72;;;9.33;100.00
60099;BME280;62818;49.394;8.686;2023-11-21T03:17:57;99796.59;;;9.37;100.00
60099;BME280;62818;49.394;8.686;2023-11-21T03:18:57;99792.38;;;9.28;100.00
60099;BME280;62818;49.394;8.686;2023-11-21T03:19:59;99798.22;;;9.23;100.00
60099;BME280;62818;49.394;8.686;2023-11-21T03:21:00;99791.84;;;9.32;100.00
60099;BME280;62818;49.394;8.686;2023-11-21T03:22:00;99794.03;;;9.29;100.00
60099;BME280;62818;49.394;8.686;2023-11-21T03:23:00;99801.63;;;9.32;100.00
60099;BME280;62818;49.394;8.686;2023-11-21T03:24:01;99800.31;;;9.28;100.00
60099;BME280;62818;49.394;8.686;2023-11-21T03:25:01;99807.34;;;9.35;100.00
60099;BME280;62818;49.394;8.686;2023-11-21T03:26:03;99804.06;;;9.48;100.00
60099;BME280;62818;49.394;8.686;2023-11-21T03:27:04;99805.91;;;9.62;100.00
60099;BME280;62818;49.394;8.686;2023-11-21T03:28:05;99808.09;;;9.44;100.00
60099;BME280;62818;49.394;8.686;2023-11-21T03:29:06;99807.19;;;9.51;100.00
60099;BME280;62818;49.394;8.686;2023-11-21T03:30:08;99800.91;;;9.67;100.00
60099;BME280;62818;49.394;8.686;2023-11-21T03:31:09;99809.34;;;9.48;100.00
60099;BME280;62818;49.394;8.686;2023-11-21T03:32:09;99804.69;;;9.50;100.00
60099;BME280;62818;49.394;8.686;2023-11-21T03:33:10;99811.63;;;9.65;100.00
60099;BME280;62818;49.394;8.686;2023-11-21T03:34:25;99802.88;;;9.50;100.00
60099;BME280;62818;49.394;8.686;2023-11-21T03:35:26;99798.44;;;9.51;100.00
60099;BME280;62818;49.394;8.686;2023-11-21T03:36:28;99802.88;;;9.50;100.00
60099;BME280;62818;49.394;8.686;2023-11-21T03:37:28;99806.19;;;9.38;100.00
60099;BME280;62818;49.394;8.686;2023-11-21T03:38:28;99806.56;;;9.49;100.00
60099;BME280;62818;49.394;8.686;2023-11-21T03:39:29;99799.97;;;9.45;100.00
60099;BME280;62818;49.394;8.686;2023-11-21T03:40:30;99802.53;;;9.53;100.00
60099;BME280;62818;49.394;8.686;2023-11-21T03:41:31;99808.09;;;9.44;100.00
60099;BME280;62818;49.394;8.686;2023-11-21T03:42:32;99805.53;;;9.50;100.00
60099;BME280;62818;49.394;8.686;2023-11-21T03:43:32;99803.81;;;9.57;100.00
60099;BME280;62818;49.394;8.686;2023-11-21T03:44:33;99805.63;;;9.57;100.00
60099;BME280;62818;49.394;8.686;2023-11-21T03:45:33;99805.53;;;9.50;100.00
60099;BME280;62818;49.394;8.686;2023-11-21T03:46:34;99804.16;;;9.54;100.00
60099;BME280;62818;49.394;8.686;2023-11-21T03:47:34;99809.19;;;9.49;100.00
60099;BME280;62818;49.394;8.686;2023-11-21T03:48:35;99804.41;;;9.74;100.00
60099;BME280;62818;49.394;8.686;2023-11-21T03:49:35;99805.25;;;9.75;100.00
60099;BME280;62818;49.394;8.686;2023-11-21T03:50:36;99810.28;;;9.84;100.00
60099;BME280;62818;49.394;8.686;2023-11-21T03:51:36;99810.06;;;10.15;100.00
60099;BME280;62818;49.394;8.686;2023-11-21T03:52:37;99797.78;;;10.28;100.00
60099;BME280;62818;49.394;8.686;2023-11-21T03:53:37;99800.03;;;10.31;100.00
60099;BME280;62818;49.394;8.686;2023-11-21T03:54:38;99799.56;;;10.42;100.00
60099;BME280;62818;49.394;8.686;2023-11-21T03:55:38;99793.88;;;10.46;100.00
60099;BME280;62818;49.394;8.686;2023-11-21T03:56:39;99782.38;;;10.17;100.00
60099;BME280;62818;49.394;8.686;2023-11-21T03:57:39;99794.69;;;10.10;100.00
60099;BME280;62818;49.394;8.686;2023-11-21T03:58:40;99787.81;;;10.30;100.00
60099;BME280;62818;49.394;8.686;2023-11-21T03:59:41;99798.56;;;9.93;100.00
60099;BME280;62818;49.394;8.686;2023-11-21T04:00:41;99791.81;;;9.76;100.00
60099;BME280;62818;49.394;8.686;2023-11-21T04:01:42;99795.84;;;9.72;100.00
60099;BME280;62818;49.394;8.686;2023-11-21T04:02:42;99793.72;;;9.97;100.00
60099;BME280;62818;49.394;8.686;2023-11-21T04:03:43;99801.19;;;10.08;100.00
60099;BME280;62818;49.394;8.686;2023-11-21T04:04:43;99798.94;;;9.90;100.00
60099;BME280;62818;49.394;8.686;2023-11-21T04:05:44;99796.84;;;9.86;100.00
60099;BME280;62818;49.394;8.686;2023-11-21T04:06:45;99799.88;;;9.68;100.00
60099;BME280;62818;49.394;8.686;2023-11-21T04:07:46;99800.78;;;9.75;100.00
60099;BME280;62818;49.394;8.686;2023-11-21T04:08:46;99801.53;;;9.69;100.00
60099;BME280;62818;49.394;8.686;2023-11-21T04:09:47;99805.06;;;9.76;100.00
60099;BME280;62818;49.394;8.686;2023-11-21T04:10:47;99804.66;;;10.08;100.00
60099;BME280;62818;49.394;8.686;2023-11-21T04:11:48;99798.56;;;9.93;100.00
60099;BME280;62818;49.394;8.686;2023-11-21T04:12:49;99798.94;;;9.90;100.00
60099;BME280;62818;49.394;8.686;2023-11-21T04:13:49;99798.03;;;9.83;100.00
60099;BME280;62818;49.394;8.686;2023-11-21T04:14:50;99796.78;;;9.64;100.00
60099;BME280;62818;49.394;8.686;2023-11-21T04:15:51;99802.88;;;9.65;100.00
60099;BME280;62818;49.394;8.686;2023-11-21T04:16:51;99804.00;;;9.56;100.00
60099;BME280;62818;49.394;8.686;2023-11-21T04:17:51;99809.44;;;9.54;100.00
60099;BME280;62818;49.394;8.686;2023-11-21T04:18:52;99806.44;;;9.43;100.00
60099;BME280;62818;49.394;8.686;2023-11-21T04:19:52;99810.63;;;9.37;100.00
60099;BME280;62818;49.394;8.686;2023-11-21T04:20:53;99816.50;;;9.62;100.00
60099;BME280;62818;49.394;8.686;2023-11-21T04:21:54;99807.69;;;9.76;100.00
60099;BME280;62818;49.394;8.686;2023-11-21T04:22:54;99818.50;;;9.60;100.00
60099;BME280;62818;49.394;8.686;2023-11-21T04:23:55;99816.75;;;9.82;100.00
60099;BME280;62818;49.394;8.686;2023-11-21T04:24:55;99824.50;;;9.54;100.00
60099;BME280;62818;49.394;8.686;2023-11-21T04:25:56;99822.88;;;9.53;100.00
60099;BME280;62818;49.394;8.686;2023-11-21T04:26:57;99825.06;;;9.64;100.00
60099;BME280;62818;49.394;8.686;2023-11-21T04:27:57;99832.28;;;9.55;100.00
60099;BME280;62818;49.394;8.686;2023-11-21T04:28:58;99828.44;;;9.58;100.00
60099;BME280;62818;49.394;8.686;2023-11-21T04:29:59;99827.44;;;9.59;100.00
60099;BME280;62818;49.394;8.686;2023-11-21T04:30:59;99823.66;;;9.39;100.00
60099;BME280;62818;49.394;8.686;2023-11-21T04:32:00;99831.16;;;9.35;100.00
60099;BME280;62818;49.394;8.686;2023-11-21T04:33:02;99831.88;;;9.29;100.00
60099;BME280;62818;49.394;8.686;2023-11-21T04:34:03;99823.56;;;9.32;100.00
60099;BME280;62818;49.394;8.686;2023-11-21T04:35:04;99825.41;;;9.32;100.00
60099;BME280;62818;49.394;8.686;2023-11-21T04:36:05;99824.59;;;9.31;100.00
60099;BME280;62818;49.394;8.686;2023-11-21T04:37:06;99832.69;;;9.30;100.00
60099;BME280;62818;49.394;8.686;2023-11-21T04:38:07;99836.44;;;9.35;100.00
60099;BME280;62818;49.394;8.686;2023-11-21T04:39:07;99834.19;;;9.47;100.00
60099;BME280;62818;49.394;8.686;2023-11-21T04:40:09;99829.97;;;9.52;100.00
60099;BME280;62818;49.394;8.686;2023-11-21T04:41:10;99838.06;;;9.22;100.00
60099;BME280;62818;49.394;8.686;2023-11-21T04:42:11;99832.97;;;9.20;100.00
60099;BME280;62818;49.394;8.686;2023-11-21T04:43:12;99835.06;;;9.25;100.00
60099;BME280;62818;49.394;8.686;2023-11-21T04:44:13;99849.88;;;9.34;100.00
60099;BME280;62818;49.394;8.686;2023-11-21T04:45:13;99842.28;;;9.45;100.00
60099;BME280;62818;49.394;8.686;2023-11-21T04:46:14;99835.63;;;9.35;100.00
60099;BME280;62818;49.394;8.686;2023-11-21T04:47:15;99842.56;;;9.36;100.00
60099;BME280;62818;49.394;8.686;2023-11-21T04:48:15;99848.66;;;9.36;100.00
60099;BME280;62818;49.394;8.686;2023-11-21T04:49:16;99843.56;;;9.35;100.00
60099;BME280;62818;49.394;8.686;2023-11-21T04:50:16;99845.47;;;9.41;100.00
60099;BME280;62818;49.394;8.686;2023-11-21T04:51:17;99845.13;;;9.44;100.00
60099;BME280;62818;49.394;8.686;2023-11-21T04:52:17;99845.56;;;9.47;100.00
60099;BME280;62818;49.394;8.686;2023-11-21T04:53:20;99843.59;;;9.49;100.00
60099;BME280;62818;49.394;8.686;2023-11-21T04:54:20;99848.06;;;9.49;100.00
60099;BME280;62818;49.394;8.686;2023-11-21T04:55:21;99846.59;;;9.61;100.00
60099;BME280;62818;49.394;8.686;2023-11-21T04:56:22;99849.31;;;9.53;100.00
60099;BME280;62818;49.394;8.686;2023-11-21T04:57:22;99847.22;;;9.48;100.00
60099;BME280;62818;49.394;8.686;2023-11-21T04:58:23;99852.78;;;9.68;100.00
60099;BME280;62818;49.394;8.686;2023-11-21T04:59:23;99850.97;;;9.83;100.00
60099;BME280;62818;49.394;8.686;2023-11-21T05:00:27;99849.88;;;9.63;100.00
60099;BME280;62818;49.394;8.686;2023-11-21T05:01:27;99850.44;;;9.73;100.00
60099;BME280;62818;49.394;8.686;2023-11-21T05:02:28;99853.72;;;9.75;100.00
60099;BME280;62818;49.394;8.686;2023-11-21T05:03:28;99851.88;;;10.19;100.00
60099;BME280;62818;49.394;8.686;2023-11-21T05:04:30;99854.81;;;9.95;100.00
60099;BME280;62818;49.394;8.686;2023-11-21T05:05:30;99857.44;;;9.66;100.00
60099;BME280;62818;49.394;8.686;2023-11-21T05:06:31;99860.38;;;9.71;100.00
60099;BME280;62818;49.394;8.686;2023-11-21T05:07:33;99851.97;;;9.53;100.00
60099;BME280;62818;49.394;8.686;2023-11-21T05:08:35;99854.16;;;9.79;100.00
60099;BME280;62818;49.394;8.686;2023-11-21T05:09:41;99858.09;;;9.68;100.00
60099;BME280;62818;49.394;8.686;2023-11-21T05:10:46;99849.69;;;9.79;100.00
60099;BME280;62818;49.394;8.686;2023-11-21T05:11:46;99855.16;;;9.63;100.00
60099;BME280;62818;49.394;8.686;2023-11-21T05:12:47;99856.25;;;9.54;100.00
60099;BME280;62818;49.394;8.686;2023-11-21T05:13:48;99858.97;;;9.46;100.00
60099;BME280;62818;49.394;8.686;2023-11-21T05:14:49;99854.81;;;9.66;100.00
60099;BME280;62818;49.394;8.686;2023-11-21T05:15:50;99853.25;;;9.57;100.00
60099;BME280;62818;49.394;8.686;2023-11-21T05:16:51;99855.88;;;9.57;100.00
60099;BME280;62818;49.394;8.686;2023-11-21T05:17:52;99856.44;;;9.38;100.00
60099;BME280;62818;49.394;8.686;2023-11-21T05:18:53;99859.47;;;9.49;100.00
60099;BME280;62818;49.394;8.686;2023-11-21T05:19:58;99863.94;;;9.49;100.00
60099;BME280;62818;49.394;8.686;2023-11-21T05:21:00;99854.63;;;9.82;100.00
60099;BME280;62818;49.394;8.686;2023-11-21T05:22:01;99857.81;;;9.78;100.00
60099;BME280;62818;49.394;8.686;2023-11-21T05:23:01;99860.19;;;9.58;100.00